sensor_id;sensor_type;location;lat;lon;timestamp;P1;durP1;ratioP1;P2;durP2;ratioP2
17953;SDS011;9102;53.548;9.926;2023-05-07T00:01:03;16.10;;;11.77;;
17953;SDS011;9102;53.548;9.926;2023-05-07T00:03:31;18.80;;;12.90;;
17953;SDS011;9102;53.548;9.926;2023-05-07T00:05:58;19.60;;;12.77;;
17953;SDS011;9102;53.548;9.926;2023-05-07T00:08:25;19.65;;;12.13;;
17953;SDS011;9102;53.548;9.926;2023-05-07T00:10:52;18.55;;;12.25;;
17953;SDS011;9102;53.548;9.926;2023-05-07T00:13:24;18.90;;;12.27;;
17953;SDS011;9102;53.548;9.926;2023-05-07T00:15:52;19.15;;;11.98;;
17953;SDS011;9102;53.548;9.926;2023-05-07T00:18:20;18.77;;;12.48;;
17953;SDS011;9102;53.548;9.926;2023-05-07T00:20:47;19.50;;;13.10;;
17953;SDS011;9102;53.548;9.926;2023-05-07T00:23:14;20.73;;;12.80;;
17953;SDS011;9102;53.548;9.926;2023-05-07T00:25:41;19.08;;;12.68;;
17953;SDS011;9102;53.548;9.926;2023-05-07T00:28:08;17.85;;;11.95;;
17953;SDS011;9102;53.548;9.926;2023-05-07T00:30:34;17.98;;;10.90;;
17953;SDS011;9102;53.548;9.926;2023-05-07T00:33:01;17.40;;;10.27;;
17953;SDS011;9102;53.548;9.926;2023-05-07T00:35:30;16.45;;;10.23;;
17953;SDS011;9102;53.548;9.926;2023-05-07T00:37:57;13.98;;;9.02;;
17953;SDS011;9102;53.548;9.926;2023-05-07T00:40:24;15.07;;;10.07;;
17953;SDS011;9102;53.548;9.926;2023-05-07T00:42:50;14.20;;;9.73;;
17953;SDS011;9102;53.548;9.926;2023-05-07T00:45:21;14.52;;;9.50;;
17953;SDS011;9102;53.548;9.926;2023-05-07T00:47:53;13.43;;;9.57;;
17953;SDS011;9102;53.548;9.926;2023-05-07T00:50:21;17.27;;;10.02;;
17953;SDS011;9102;53.548;9.926;2023-05-07T00:52:49;15.07;;;10.15;;
17953;SDS011;9102;53.548;9.926;2023-05-07T00:55:16;15.35;;;9.50;;
17953;SDS011;9102;53.548;9.926;2023-05-07T00:57:44;13.60;;;8.88;;
17953;SDS011;9102;53.548;9.926;2023-05-07T01:00:11;12.25;;;8.95;;
17953;SDS011;9102;53.548;9.926;2023-05-07T01:02:39;13.93;;;9.25;;
17953;SDS011;9102;53.548;9.926;2023-05-07T01:05:07;12.07;;;8.70;;
17953;SDS011;9102;53.548;9.926;2023-05-07T01:07:36;13.77;;;8.45;;
17953;SDS011;9102;53.548;9.926;2023-05-07T01:10:07;13.20;;;8.02;;
17953;SDS011;9102;53.548;9.926;2023-05-07T01:12:35;15.48;;;8.85;;
17953;SDS011;9102;53.548;9.926;2023-05-07T01:15:03;12.45;;;8.25;;
17953;SDS011;9102;53.548;9.926;2023-05-07T01:17:34;14.57;;;8.73;;
17953;SDS011;9102;53.548;9.926;2023-05-07T01:20:02;14.75;;;8.88;;
17953;SDS011;9102;53.548;9.926;2023-05-07T01:22:33;14.70;;;9.48;;
17953;SDS011;9102;53.548;9.926;2023-05-07T01:25:02;13.30;;;9.13;;
17953;SDS011;9102;53.548;9.926;2023-05-07T01:27:29;15.15;;;9.63;;
17953;SDS011;9102;53.548;9.926;2023-05-07T01:29:58;13.45;;;9.00;;
17953;SDS011;9102;53.548;9.926;2023-05-07T01:32:26;13.90;;;9.25;;
17953;SDS011;9102;53.548;9.926;2023-05-07T01:34:58;11.15;;;8.07;;
17953;SDS011;9102;53.548;9.926;2023-05-07T01:37:27;12.35;;;8.68;;
17953;SDS011;9102;53.548;9.926;2023-05-07T01:39:56;15.48;;;8.93;;
17953;SDS011;9102;53.548;9.926;2023-05-07T01:42:24;11.05;;;8.00;;
17953;SDS011;9102;53.548;9.926;2023-05-07T01:44:51;10.95;;;7.43;;
17953;SDS011;9102;53.548;9.926;2023-05-07T01:47:18;11.25;;;8.15;;
17953;SDS011;9102;53.548;9.926;2023-05-07T01:49:46;11.20;;;7.88;;
17953;SDS011;9102;53.548;9.926;2023-05-07T01:52:13;11.50;;;8.50;;
17953;SDS011;9102;53.548;9.926;2023-05-07T01:54:40;10.60;;;7.40;;
17953;SDS011;9102;53.548;9.926;2023-05-07T01:57:09;9.82;;;7.85;;
17953;SDS011;9102;53.548;9.926;2023-05-07T01:59:35;10.20;;;7.72;;
17953;SDS011;9102;53.548;9.926;2023-05-07T02:02:02;9.05;;;6.97;;
17953;SDS011;9102;53.548;9.926;2023-05-07T02:04:29;8.48;;;6.82;;
17953;SDS011;9102;53.548;9.926;2023-05-07T02:06:56;10.82;;;7.05;;
17953;SDS011;9102;53.548;9.926;2023-05-07T02:09:23;10.30;;;7.32;;
17953;SDS011;9102;53.548;9.926;2023-05-07T02:11:50;11.43;;;7.80;;
17953;SDS011;9102;53.548;9.926;2023-05-07T02:14:18;12.20;;;8.55;;
17953;SDS011;9102;53.548;9.926;2023-05-07T02:16:45;11.43;;;8.45;;
17953;SDS011;9102;53.548;9.926;2023-05-07T02:19:12;11.65;;;8.48;;
17953;SDS011;9102;53.548;9.926;2023-05-07T02:21:39;12.90;;;8.90;;
17953;SDS011;9102;53.548;9.926;2023-05-07T02:24:06;12.88;;;8.80;;
17953;SDS011;9102;53.548;9.926;2023-05-07T02:26:33;14.73;;;9.15;;
17953;SDS011;9102;53.548;9.926;2023-05-07T02:29:00;13.10;;;8.73;;
17953;SDS011;9102;53.548;9.926;2023-05-07T02:31:28;12.23;;;8.70;;
17953;SDS011;9102;53.548;9.926;2023-05-07T02:33:55;11.48;;;8.25;;
17953;SDS011;9102;53.548;9.926;2023-05-07T02:36:22;13.32;;;9.13;;
17953;SDS011;9102;53.548;9.926;2023-05-07T02:38:48;13.50;;;9.32;;
17953;SDS011;9102;53.548;9.926;2023-05-07T02:41:15;12.18;;;8.95;;
17953;SDS011;9102;53.548;9.926;2023-05-07T02:43:42;11.52;;;8.05;;
17953;SDS011;9102;53.548;9.926;2023-05-07T02:46:09;12.55;;;9.30;;
17953;SDS011;9102;53.548;9.926;2023-05-07T02:48:38;11.85;;;8.82;;
17953;SDS011;9102;53.548;9.926;2023-05-07T02:51:05;14.65;;;9.13;;
17953;SDS011;9102;53.548;9.926;2023-05-07T02:53:32;13.27;;;8.77;;
17953;SDS011;9102;53.548;9.926;2023-05-07T02:56:00;15.90;;;10.27;;
17953;SDS011;9102;53.548;9.926;2023-05-07T02:58:31;14.20;;;9.52;;
17953;SDS011;9102;53.548;9.926;2023-05-07T03:00:58;16.08;;;10.40;;
17953;SDS011;9102;53.548;9.926;2023-05-07T03:03:25;14.65;;;9.85;;
17953;SDS011;9102;53.548;9.926;2023-05-07T03:05:53;17.00;;;10.73;;
17953;SDS011;9102;53.548;9.926;2023-05-07T03:08:20;14.18;;;9.20;;
17953;SDS011;9102;53.548;9.926;2023-05-07T03:10:47;16.52;;;10.32;;
17953;SDS011;9102;53.548;9.926;2023-05-07T03:13:14;13.15;;;9.38;;
17953;SDS011;9102;53.548;9.926;2023-05-07T03:15:41;17.95;;;9.70;;
17953;SDS011;9102;53.548;9.926;2023-05-07T03:18:08;14.20;;;9.15;;
17953;SDS011;9102;53.548;9.926;2023-05-07T03:20:36;16.48;;;10.18;;
17953;SDS011;9102;53.548;9.926;2023-05-07T03:23:04;15.85;;;10.63;;
17953;SDS011;9102;53.548;9.926;2023-05-07T03:25:31;16.17;;;10.18;;
17953;SDS011;9102;53.548;9.926;2023-05-07T03:28:00;17.00;;;10.38;;
17953;SDS011;9102;53.548;9.926;2023-05-07T03:30:27;17.52;;;11.05;;
17953;SDS011;9102;53.548;9.926;2023-05-07T03:32:53;16.85;;;10.60;;
17953;SDS011;9102;53.548;9.926;2023-05-07T03:35:20;17.30;;;11.68;;
17953;SDS011;9102;53.548;9.926;2023-05-07T03:37:47;19.73;;;11.88;;
17953;SDS011;9102;53.548;9.926;2023-05-07T03:40:15;16.70;;;11.05;;
17953;SDS011;9102;53.548;9.926;2023-05-07T03:42:42;17.90;;;11.43;;
17953;SDS011;9102;53.548;9.926;2023-05-07T03:45:10;18.45;;;12.10;;
17953;SDS011;9102;53.548;9.926;2023-05-07T03:47:37;18.35;;;10.77;;
17953;SDS011;9102;53.548;9.926;2023-05-07T03:50:04;19.83;;;11.73;;
17953;SDS011;9102;53.548;9.926;2023-05-07T03:52:31;17.70;;;12.40;;
17953;SDS011;9102;53.548;9.926;2023-05-07T03:54:58;17.63;;;11.68;;
17953;SDS011;9102;53.548;9.926;2023-05-07T03:57:27;16.17;;;10.98;;
17953;SDS011;9102;53.548;9.926;2023-05-07T03:59:53;16.92;;;11.32;;
17953;SDS011;9102;53.548;9.926;2023-05-07T04:02:22;17.48;;;10.77;;
17953;SDS011;9102;53.548;9.926;2023-05-07T04:04:50;16.05;;;10.75;;
17953;SDS011;9102;53.548;9.926;2023-05-07T04:07:17;16.10;;;11.18;;
17953;SDS011;9102;53.548;9.926;2023-05-07T04:09:43;16.23;;;11.05;;
17953;SDS011;9102;53.548;9.926;2023-05-07T04:12:10;16.08;;;10.68;;
17953;SDS011;9102;53.548;9.926;2023-05-07T04:14:39;15.73;;;10.80;;
17953;SDS011;9102;53.548;9.926;2023-05-07T04:17:06;15.38;;;10.48;;
17953;SDS011;9102;53.548;9.926;2023-05-07T04:19:34;17.13;;;10.77;;
17953;SDS011;9102;53.548;9.926;2023-05-07T04:22:09;18.35;;;10.85;;
17953;SDS011;9102;53.548;9.926;2023-05-07T04:24:36;16.88;;;10.30;;
17953;SDS011;9102;53.548;9.926;2023-05-07T04:27:03;14.90;;;9.55;;
17953;SDS011;9102;53.548;9.926;2023-05-07T04:29:31;13.65;;;9.55;;
17953;SDS011;9102;53.548;9.926;2023-05-07T04:32:03;15.82;;;10.27;;
17953;SDS011;9102;53.548;9.926;2023-05-07T04:34:31;15.13;;;9.52;;
17953;SDS011;9102;53.548;9.926;2023-05-07T04:36:58;14.57;;;10.55;;
17953;SDS011;9102;53.548;9.926;2023-05-07T04:39:27;15.95;;;9.85;;
17953;SDS011;9102;53.548;9.926;2023-05-07T04:41:54;17.75;;;10.70;;
17953;SDS011;9102;53.548;9.926;2023-05-07T04:44:21;16.45;;;10.55;;
17953;SDS011;9102;53.548;9.926;2023-05-07T04:46:48;13.75;;;9.68;;
17953;SDS011;9102;53.548;9.926;2023-05-07T04:49:17;17.10;;;11.00;;
17953;SDS011;9102;53.548;9.926;2023-05-07T04:51:44;15.10;;;9.80;;
17953;SDS011;9102;53.548;9.926;2023-05-07T04:54:11;15.05;;;9.95;;
17953;SDS011;9102;53.548;9.926;2023-05-07T04:56:38;14.52;;;9.85;;
17953;SDS011;9102;53.548;9.926;2023-05-07T04:59:05;14.05;;;10.30;;
17953;SDS011;9102;53.548;9.926;2023-05-07T05:01:32;14.18;;;9.35;;
17953;SDS011;9102;53.548;9.926;2023-05-07T05:04:02;15.25;;;9.82;;
17953;SDS011;9102;53.548;9.926;2023-05-07T05:06:30;13.82;;;9.00;;
17953;SDS011;9102;53.548;9.926;2023-05-07T05:08:57;14.65;;;9.07;;
17953;SDS011;9102;53.548;9.926;2023-05-07T05:11:24;13.05;;;8.80;;
17953;SDS011;9102;53.548;9.926;2023-05-07T05:13:51;16.50;;;10.02;;
17953;SDS011;9102;53.548;9.926;2023-05-07T05:16:18;12.93;;;9.65;;
17953;SDS011;9102;53.548;9.926;2023-05-07T05:18:45;15.25;;;9.73;;
17953;SDS011;9102;53.548;9.926;2023-05-07T05:21:12;13.02;;;8.63;;
17953;SDS011;9102;53.548;9.926;2023-05-07T05:23:40;13.65;;;8.80;;
17953;SDS011;9102;53.548;9.926;2023-05-07T05:26:07;13.93;;;8.88;;
17953;SDS011;9102;53.548;9.926;2023-05-07T05:28:35;14.50;;;9.20;;
17953;SDS011;9102;53.548;9.926;2023-05-07T05:31:02;13.77;;;9.18;;
17953;SDS011;9102;53.548;9.926;2023-05-07T05:33:29;12.63;;;8.43;;
17953;SDS011;9102;53.548;9.926;2023-05-07T05:35:56;14.07;;;9.02;;
17953;SDS011;9102;53.548;9.926;2023-05-07T05:38:23;14.23;;;9.20;;
17953;SDS011;9102;53.548;9.926;2023-05-07T05:40:52;15.05;;;9.00;;
17953;SDS011;9102;53.548;9.926;2023-05-07T05:43:19;14.60;;;8.82;;
17953;SDS011;9102;53.548;9.926;2023-05-07T05:45:46;13.82;;;8.98;;
17953;SDS011;9102;53.548;9.926;2023-05-07T05:48:12;13.25;;;9.02;;
17953;SDS011;9102;53.548;9.926;2023-05-07T05:50:39;13.43;;;9.30;;
17953;SDS011;9102;53.548;9.926;2023-05-07T05:53:10;13.85;;;9.00;;
17953;SDS011;9102;53.548;9.926;2023-05-07T05:55:37;14.90;;;8.82;;
17953;SDS011;9102;53.548;9.926;2023-05-07T05:58:05;12.45;;;8.85;;
17953;SDS011;9102;53.548;9.926;2023-05-07T06:00:33;15.27;;;8.70;;
17953;SDS011;9102;53.548;9.926;2023-05-07T06:03:00;13.52;;;9.10;;
17953;SDS011;9102;53.548;9.926;2023-05-07T06:05:29;13.05;;;8.77;;
17953;SDS011;9102;53.548;9.926;2023-05-07T06:07:56;13.35;;;8.63;;
17953;SDS011;9102;53.548;9.926;2023-05-07T06:10:23;13.68;;;9.00;;
17953;SDS011;9102;53.548;9.926;2023-05-07T06:12:51;13.75;;;9.50;;
17953;SDS011;9102;53.548;9.926;2023-05-07T06:15:19;13.15;;;8.50;;
17953;SDS011;9102;53.548;9.926;2023-05-07T06:17:47;13.40;;;8.55;;
17953;SDS011;9102;53.548;9.926;2023-05-07T06:20:14;11.35;;;8.30;;
17953;SDS011;9102;53.548;9.926;2023-05-07T06:22:41;12.70;;;8.70;;
17953;SDS011;9102;53.548;9.926;2023-05-07T06:25:08;11.45;;;8.40;;
17953;SDS011;9102;53.548;9.926;2023-05-07T06:27:35;14.15;;;8.63;;
17953;SDS011;9102;53.548;9.926;2023-05-07T06:30:02;12.50;;;8.38;;
17953;SDS011;9102;53.548;9.926;2023-05-07T06:32:31;12.05;;;8.30;;
17953;SDS011;9102;53.548;9.926;2023-05-07T06:34:58;12.45;;;8.07;;
17953;SDS011;9102;53.548;9.926;2023-05-07T06:37:25;13.20;;;8.60;;
17953;SDS011;9102;53.548;9.926;2023-05-07T06:39:51;12.00;;;8.20;;
17953;SDS011;9102;53.548;9.926;2023-05-07T06:42:20;12.68;;;8.52;;
17953;SDS011;9102;53.548;9.926;2023-05-07T06:44:46;12.93;;;8.80;;
17953;SDS011;9102;53.548;9.926;2023-05-07T06:47:13;12.23;;;8.48;;
17953;SDS011;9102;53.548;9.926;2023-05-07T06:49:41;10.20;;;7.80;;
17953;SDS011;9102;53.548;9.926;2023-05-07T06:52:08;11.60;;;8.13;;
17953;SDS011;9102;53.548;9.926;2023-05-07T06:54:35;12.80;;;8.65;;
17953;SDS011;9102;53.548;9.926;2023-05-07T06:57:03;12.98;;;8.82;;
17953;SDS011;9102;53.548;9.926;2023-05-07T06:59:30;14.43;;;9.40;;
17953;SDS011;9102;53.548;9.926;2023-05-07T07:01:56;14.35;;;9.30;;
17953;SDS011;9102;53.548;9.926;2023-05-07T07:04:23;14.40;;;8.70;;
17953;SDS011;9102;53.548;9.926;2023-05-07T07:06:53;12.05;;;8.25;;
17953;SDS011;9102;53.548;9.926;2023-05-07T07:09:21;11.15;;;8.20;;
17953;SDS011;9102;53.548;9.926;2023-05-07T07:11:48;13.32;;;8.93;;
17953;SDS011;9102;53.548;9.926;2023-05-07T07:14:15;12.00;;;8.30;;
17953;SDS011;9102;53.548;9.926;2023-05-07T07:16:42;12.20;;;8.75;;
17953;SDS011;9102;53.548;9.926;2023-05-07T07:19:08;12.38;;;7.68;;
17953;SDS011;9102;53.548;9.926;2023-05-07T07:21:35;10.73;;;7.85;;
17953;SDS011;9102;53.548;9.926;2023-05-07T07:24:04;12.65;;;8.07;;
17953;SDS011;9102;53.548;9.926;2023-05-07T07:26:31;10.90;;;7.22;;
17953;SDS011;9102;53.548;9.926;2023-05-07T07:28:58;11.43;;;7.68;;
17953;SDS011;9102;53.548;9.926;2023-05-07T07:31:24;11.15;;;7.57;;
17953;SDS011;9102;53.548;9.926;2023-05-07T07:33:51;9.43;;;6.78;;
17953;SDS011;9102;53.548;9.926;2023-05-07T07:36:18;11.32;;;7.10;;
17953;SDS011;9102;53.548;9.926;2023-05-07T07:38:45;11.32;;;7.03;;
17953;SDS011;9102;53.548;9.926;2023-05-07T07:41:13;8.82;;;7.00;;
17953;SDS011;9102;53.548;9.926;2023-05-07T07:43:40;12.52;;;7.18;;
17953;SDS011;9102;53.548;9.926;2023-05-07T07:46:06;10.02;;;7.40;;
17953;SDS011;9102;53.548;9.926;2023-05-07T07:48:33;10.68;;;7.30;;
17953;SDS011;9102;53.548;9.926;2023-05-07T07:51:00;9.93;;;6.75;;
17953;SDS011;9102;53.548;9.926;2023-05-07T07:53:27;10.57;;;6.65;;
17953;SDS011;9102;53.548;9.926;2023-05-07T07:55:54;10.77;;;6.80;;
17953;SDS011;9102;53.548;9.926;2023-05-07T07:58:22;10.55;;;5.82;;
17953;SDS011;9102;53.548;9.926;2023-05-07T08:00:49;9.75;;;6.57;;
17953;SDS011;9102;53.548;9.926;2023-05-07T08:03:16;9.90;;;6.80;;
17953;SDS011;9102;53.548;9.926;2023-05-07T08:05:44;12.10;;;6.88;;
17953;SDS011;9102;53.548;9.926;2023-05-07T08:08:11;10.63;;;6.45;;
17953;SDS011;9102;53.548;9.926;2023-05-07T08:10:38;10.45;;;6.75;;
17953;SDS011;9102;53.548;9.926;2023-05-07T08:13:05;9.20;;;6.20;;
17953;SDS011;9102;53.548;9.926;2023-05-07T08:15:33;10.35;;;6.80;;
17953;SDS011;9102;53.548;9.926;2023-05-07T08:18:00;8.95;;;6.18;;
17953;SDS011;9102;53.548;9.926;2023-05-07T08:20:28;9.18;;;6.30;;
17953;SDS011;9102;53.548;9.926;2023-05-07T08:22:55;11.18;;;7.38;;
17953;SDS011;9102;53.548;9.926;2023-05-07T08:25:21;9.52;;;6.07;;
17953;SDS011;9102;53.548;9.926;2023-05-07T08:27:48;8.70;;;5.97;;
17953;SDS011;9102;53.548;9.926;2023-05-07T08:30:15;10.20;;;6.63;;
17953;SDS011;9102;53.548;9.926;2023-05-07T08:32:46;10.93;;;6.00;;
17953;SDS011;9102;53.548;9.926;2023-05-07T08:35:15;8.13;;;6.25;;
17953;SDS011;9102;53.548;9.926;2023-05-07T08:37:44;8.93;;;6.10;;
17953;SDS011;9102;53.548;9.926;2023-05-07T08:40:11;10.70;;;5.97;;
17953;SDS011;9102;53.548;9.926;2023-05-07T08:42:42;9.65;;;5.68;;
17953;SDS011;9102;53.548;9.926;2023-05-07T08:45:16;9.95;;;5.95;;
17953;SDS011;9102;53.548;9.926;2023-05-07T08:47:51;9.73;;;5.88;;
17953;SDS011;9102;53.548;9.926;2023-05-07T08:50:21;8.80;;;6.03;;
17953;SDS011;9102;53.548;9.926;2023-05-07T08:52:52;10.90;;;6.18;;
17953;SDS011;9102;53.548;9.926;2023-05-07T08:55:31;8.90;;;6.35;;
17953;SDS011;9102;53.548;9.926;2023-05-07T08:58:01;13.00;;;7.55;;
17953;SDS011;9102;53.548;9.926;2023-05-07T09:00:32;9.32;;;6.50;;
17953;SDS011;9102;53.548;9.926;2023-05-07T09:03:04;8.15;;;6.00;;
17953;SDS011;9102;53.548;9.926;2023-05-07T09:08:09;10.50;;;6.55;;
17953;SDS011;9102;53.548;9.926;2023-05-07T09:10:40;9.20;;;6.40;;
17953;SDS011;9102;53.548;9.926;2023-05-07T09:13:13;9.63;;;6.70;;
17953;SDS011;9102;53.548;9.926;2023-05-07T09:15:48;9.85;;;7.90;;
17953;SDS011;9102;53.548;9.926;2023-05-07T09:18:16;12.15;;;7.07;;
17953;SDS011;9102;53.548;9.926;2023-05-07T09:20:43;9.90;;;6.90;;
17953;SDS011;9102;53.548;9.926;2023-05-07T09:23:15;11.32;;;6.53;;
17953;SDS011;9102;53.548;9.926;2023-05-07T09:25:52;9.50;;;6.55;;
17953;SDS011;9102;53.548;9.926;2023-05-07T09:28:32;9.23;;;6.72;;
17953;SDS011;9102;53.548;9.926;2023-05-07T09:30:59;10.68;;;6.22;;
17953;SDS011;9102;53.548;9.926;2023-05-07T09:33:30;11.02;;;6.53;;
17953;SDS011;9102;53.548;9.926;2023-05-07T09:36:01;9.70;;;6.13;;
17953;SDS011;9102;53.548;9.926;2023-05-07T09:38:32;13.57;;;6.03;;
17953;SDS011;9102;53.548;9.926;2023-05-07T09:41:26;9.15;;;6.18;;
17953;SDS011;9102;53.548;9.926;2023-05-07T09:44:10;9.25;;;5.97;;
17953;SDS011;9102;53.548;9.926;2023-05-07T09:46:53;7.90;;;6.10;;
17953;SDS011;9102;53.548;9.926;2023-05-07T09:49:33;9.25;;;5.97;;
17953;SDS011;9102;53.548;9.926;2023-05-07T09:52:07;9.23;;;6.00;;
17953;SDS011;9102;53.548;9.926;2023-05-07T09:54:35;8.45;;;5.43;;
17953;SDS011;9102;53.548;9.926;2023-05-07T09:57:04;8.68;;;5.75;;
17953;SDS011;9102;53.548;9.926;2023-05-07T10:02:58;9.00;;;5.45;;
17953;SDS011;9102;53.548;9.926;2023-05-07T10:08:12;9.57;;;5.45;;
17953;SDS011;9102;53.548;9.926;2023-05-07T10:10:45;7.82;;;5.35;;
17953;SDS011;9102;53.548;9.926;2023-05-07T10:13:19;10.27;;;6.15;;
17953;SDS011;9102;53.548;9.926;2023-05-07T10:16:15;8.35;;;5.38;;
17953;SDS011;9102;53.548;9.926;2023-05-07T10:18:43;8.50;;;5.97;;
17953;SDS011;9102;53.548;9.926;2023-05-07T10:21:13;9.88;;;6.40;;
17953;SDS011;9102;53.548;9.926;2023-05-07T10:23:53;9.15;;;6.13;;
17953;SDS011;9102;53.548;9.926;2023-05-07T10:26:56;7.50;;;5.60;;
17953;SDS011;9102;53.548;9.926;2023-05-07T10:29:29;8.10;;;5.80;;
17953;SDS011;9102;53.548;9.926;2023-05-07T10:32:30;8.13;;;5.45;;
17953;SDS011;9102;53.548;9.926;2023-05-07T10:35:19;9.95;;;5.40;;
17953;SDS011;9102;53.548;9.926;2023-05-07T10:37:58;12.43;;;5.63;;
17953;SDS011;9102;53.548;9.926;2023-05-07T10:40:31;9.90;;;6.20;;
17953;SDS011;9102;53.548;9.926;2023-05-07T10:42:59;8.48;;;5.25;;
17953;SDS011;9102;53.548;9.926;2023-05-07T10:45:43;8.45;;;5.10;;
17953;SDS011;9102;53.548;9.926;2023-05-07T10:51:41;7.32;;;5.40;;
17953;SDS011;9102;53.548;9.926;2023-05-07T11:00:04;7.97;;;5.32;;
17953;SDS011;9102;53.548;9.926;2023-05-07T11:03:12;9.90;;;5.03;;
17953;SDS011;9102;53.548;9.926;2023-05-07T11:05:44;8.85;;;5.00;;
17953;SDS011;9102;53.548;9.926;2023-05-07T11:08:54;6.97;;;5.05;;
17953;SDS011;9102;53.548;9.926;2023-05-07T11:11:57;7.38;;;5.28;;
17953;SDS011;9102;53.548;9.926;2023-05-07T11:14:44;7.32;;;4.97;;
17953;SDS011;9102;53.548;9.926;2023-05-07T11:17:11;5.38;;;4.25;;
17953;SDS011;9102;53.548;9.926;2023-05-07T11:19:48;6.70;;;5.10;;
17953;SDS011;9102;53.548;9.926;2023-05-07T11:25:06;7.60;;;4.97;;
17953;SDS011;9102;53.548;9.926;2023-05-07T11:27:36;7.57;;;4.80;;
17953;SDS011;9102;53.548;9.926;2023-05-07T11:30:05;8.13;;;4.93;;
17953;SDS011;9102;53.548;9.926;2023-05-07T11:32:33;6.20;;;5.10;;
17953;SDS011;9102;53.548;9.926;2023-05-07T11:35:00;6.90;;;5.15;;
17953;SDS011;9102;53.548;9.926;2023-05-07T11:37:27;9.00;;;5.25;;
17953;SDS011;9102;53.548;9.926;2023-05-07T11:40:02;8.10;;;5.18;;
17953;SDS011;9102;53.548;9.926;2023-05-07T11:42:35;5.93;;;4.78;;
17953;SDS011;9102;53.548;9.926;2023-05-07T11:45:19;6.28;;;4.68;;
17953;SDS011;9102;53.548;9.926;2023-05-07T11:47:50;8.48;;;6.07;;
17953;SDS011;9102;53.548;9.926;2023-05-07T11:50:17;6.97;;;4.63;;
17953;SDS011;9102;53.548;9.926;2023-05-07T11:52:49;8.20;;;4.75;;
17953;SDS011;9102;53.548;9.926;2023-05-07T11:55:23;5.43;;;4.53;;
17953;SDS011;9102;53.548;9.926;2023-05-07T11:57:53;8.30;;;4.85;;
17953;SDS011;9102;53.548;9.926;2023-05-07T12:00:20;5.60;;;4.63;;
17953;SDS011;9102;53.548;9.926;2023-05-07T12:02:47;6.57;;;4.57;;
17953;SDS011;9102;53.548;9.926;2023-05-07T12:05:14;7.25;;;4.93;;
17953;SDS011;9102;53.548;9.926;2023-05-07T12:07:42;8.00;;;4.35;;
17953;SDS011;9102;53.548;9.926;2023-05-07T12:10:12;7.00;;;4.05;;
17953;SDS011;9102;53.548;9.926;2023-05-07T12:12:39;7.38;;;4.13;;
17953;SDS011;9102;53.548;9.926;2023-05-07T12:15:09;5.57;;;3.85;;
17953;SDS011;9102;53.548;9.926;2023-05-07T12:17:38;5.18;;;3.85;;
17953;SDS011;9102;53.548;9.926;2023-05-07T12:20:06;5.95;;;4.03;;
17953;SDS011;9102;53.548;9.926;2023-05-07T12:22:34;5.82;;;4.10;;
17953;SDS011;9102;53.548;9.926;2023-05-07T12:25:02;5.88;;;4.03;;
17953;SDS011;9102;53.548;9.926;2023-05-07T12:27:29;5.13;;;3.95;;
17953;SDS011;9102;53.548;9.926;2023-05-07T12:29:56;5.03;;;3.60;;
17953;SDS011;9102;53.548;9.926;2023-05-07T12:32:26;6.47;;;4.70;;
17953;SDS011;9102;53.548;9.926;2023-05-07T12:34:53;3.67;;;3.13;;
17953;SDS011;9102;53.548;9.926;2023-05-07T12:37:31;5.38;;;3.45;;
17953;SDS011;9102;53.548;9.926;2023-05-07T12:40:05;6.65;;;3.15;;
17953;SDS011;9102;53.548;9.926;2023-05-07T12:42:35;6.60;;;3.20;;
17953;SDS011;9102;53.548;9.926;2023-05-07T12:45:09;4.85;;;3.38;;
17953;SDS011;9102;53.548;9.926;2023-05-07T12:47:38;4.20;;;3.60;;
17953;SDS011;9102;53.548;9.926;2023-05-07T12:50:07;4.78;;;3.30;;
17953;SDS011;9102;53.548;9.926;2023-05-07T12:52:34;7.10;;;3.10;;
17953;SDS011;9102;53.548;9.926;2023-05-07T12:55:05;3.80;;;3.13;;
17953;SDS011;9102;53.548;9.926;2023-05-07T12:57:37;5.85;;;3.00;;
17953;SDS011;9102;53.548;9.926;2023-05-07T13:00:06;4.38;;;3.20;;
17953;SDS011;9102;53.548;9.926;2023-05-07T13:02:37;3.78;;;2.80;;
17953;SDS011;9102;53.548;9.926;2023-05-07T13:05:07;4.63;;;3.00;;
17953;SDS011;9102;53.548;9.926;2023-05-07T13:07:34;4.78;;;3.17;;
17953;SDS011;9102;53.548;9.926;2023-05-07T13:10:01;4.57;;;2.97;;
17953;SDS011;9102;53.548;9.926;2023-05-07T13:12:29;3.00;;;2.70;;
17953;SDS011;9102;53.548;9.926;2023-05-07T13:14:55;4.18;;;3.13;;
17953;SDS011;9102;53.548;9.926;2023-05-07T13:17:22;3.40;;;2.80;;
17953;SDS011;9102;53.548;9.926;2023-05-07T13:19:51;5.13;;;2.90;;
17953;SDS011;9102;53.548;9.926;2023-05-07T13:22:18;3.83;;;2.72;;
17953;SDS011;9102;53.548;9.926;2023-05-07T13:24:45;3.80;;;2.78;;
17953;SDS011;9102;53.548;9.926;2023-05-07T13:27:12;5.35;;;2.88;;
17953;SDS011;9102;53.548;9.926;2023-05-07T13:29:39;5.15;;;3.10;;
17953;SDS011;9102;53.548;9.926;2023-05-07T13:32:06;4.22;;;2.55;;
17953;SDS011;9102;53.548;9.926;2023-05-07T13:34:48;3.38;;;2.75;;
17953;SDS011;9102;53.548;9.926;2023-05-07T13:37:17;4.28;;;2.70;;
17953;SDS011;9102;53.548;9.926;2023-05-07T13:39:43;2.85;;;2.35;;
17953;SDS011;9102;53.548;9.926;2023-05-07T13:42:13;4.63;;;2.70;;
17953;SDS011;9102;53.548;9.926;2023-05-07T13:44:44;3.35;;;2.65;;
17953;SDS011;9102;53.548;9.926;2023-05-07T13:47:11;3.35;;;2.53;;
17953;SDS011;9102;53.548;9.926;2023-05-07T13:49:38;5.75;;;2.65;;
17953;SDS011;9102;53.548;9.926;2023-05-07T13:52:08;3.78;;;2.42;;
17953;SDS011;9102;53.548;9.926;2023-05-07T13:54:35;5.45;;;2.40;;
17953;SDS011;9102;53.548;9.926;2023-05-07T13:57:02;3.15;;;2.55;;
17953;SDS011;9102;53.548;9.926;2023-05-07T13:59:29;3.95;;;2.67;;
17953;SDS011;9102;53.548;9.926;2023-05-07T14:01:56;4.28;;;2.65;;
17953;SDS011;9102;53.548;9.926;2023-05-07T14:04:24;4.80;;;2.30;;
17953;SDS011;9102;53.548;9.926;2023-05-07T14:06:51;3.20;;;2.58;;
17953;SDS011;9102;53.548;9.926;2023-05-07T14:09:19;4.03;;;2.70;;
17953;SDS011;9102;53.548;9.926;2023-05-07T14:11:46;3.05;;;2.60;;
17953;SDS011;9102;53.548;9.926;2023-05-07T14:14:16;3.28;;;2.40;;
17953;SDS011;9102;53.548;9.926;2023-05-07T14:16:43;3.17;;;2.00;;
17953;SDS011;9102;53.548;9.926;2023-05-07T14:19:10;3.75;;;2.50;;
17953;SDS011;9102;53.548;9.926;2023-05-07T14:21:38;3.50;;;2.08;;
17953;SDS011;9102;53.548;9.926;2023-05-07T14:24:06;4.70;;;2.60;;
17953;SDS011;9102;53.548;9.926;2023-05-07T14:26:36;4.93;;;2.00;;
17953;SDS011;9102;53.548;9.926;2023-05-07T14:29:03;4.82;;;2.60;;
17953;SDS011;9102;53.548;9.926;2023-05-07T14:31:29;3.25;;;2.22;;
17953;SDS011;9102;53.548;9.926;2023-05-07T14:33:57;3.17;;;2.22;;
17953;SDS011;9102;53.548;9.926;2023-05-07T14:36:24;3.05;;;1.88;;
17953;SDS011;9102;53.548;9.926;2023-05-07T14:38:53;5.82;;;2.03;;
17953;SDS011;9102;53.548;9.926;2023-05-07T14:41:24;6.55;;;1.92;;
17953;SDS011;9102;53.548;9.926;2023-05-07T14:43:52;3.55;;;2.22;;
17953;SDS011;9102;53.548;9.926;2023-05-07T14:46:19;3.22;;;2.13;;
17953;SDS011;9102;53.548;9.926;2023-05-07T14:48:46;3.35;;;2.10;;
17953;SDS011;9102;53.548;9.926;2023-05-07T14:51:13;2.60;;;1.80;;
17953;SDS011;9102;53.548;9.926;2023-05-07T14:53:40;2.60;;;1.95;;
17953;SDS011;9102;53.548;9.926;2023-05-07T14:56:07;4.00;;;2.03;;
17953;SDS011;9102;53.548;9.926;2023-05-07T14:58:35;2.65;;;1.73;;
17953;SDS011;9102;53.548;9.926;2023-05-07T15:01:05;6.15;;;2.00;;
17953;SDS011;9102;53.548;9.926;2023-05-07T15:03:32;4.80;;;2.47;;
17953;SDS011;9102;53.548;9.926;2023-05-07T15:05:59;3.65;;;1.83;;
17953;SDS011;9102;53.548;9.926;2023-05-07T15:08:26;3.67;;;1.98;;
17953;SDS011;9102;53.548;9.926;2023-05-07T15:10:52;2.05;;;1.80;;
17953;SDS011;9102;53.548;9.926;2023-05-07T15:13:20;8.20;;;2.15;;
17953;SDS011;9102;53.548;9.926;2023-05-07T15:15:47;5.95;;;1.80;;
17953;SDS011;9102;53.548;9.926;2023-05-07T15:18:19;2.45;;;1.90;;
17953;SDS011;9102;53.548;9.926;2023-05-07T15:20:46;2.88;;;1.70;;
17953;SDS011;9102;53.548;9.926;2023-05-07T15:23:13;4.60;;;1.95;;